Bettles Field, AK (99726)

11:33 AM AKST on February 12, 2016 (GMT -0900)
Bettles | | Change Station
CLOSE
Current Station
Airport
Location: Bettles,
Elevation: 643 ft
Nearby Weather Stations

Elev 643 ft 66.91 °N, 151.53 °W | Updated 40 minutes ago

Mostly Cloudy
Mostly Cloudy
13 °F
Feels Like 7 °F
N
4
Wind Variable Wind from North

Today
High -- | Low -- °F
--% Chance of Precip.
Yesterday
High -- | Low -- °F
Precip. -- in
Pressure 29.62 in
Visibility 10.0 miles
Clouds Few 4200 ft
Mostly Cloudy 5000 ft
Windchill 7 °F
Dew Point 9 °F
Humidity 84%
Rainfall 0.04 in
Snow Depth Not available.
9:29 AM 5:06 PM
Waxing Crescent, 23% visible
METAR PABT 121953Z 36003KT 10SM FEW042 BKN050 M11/M13 A2956 RMK AO2 SNE12 SLP030 SHSN DSNT W-NW T11061128
Pressure 29.62 in
Visibility 10.0 miles
Clouds Few 4200 ft
Mostly Cloudy 5000 ft
Windchill 7 °F
Dew Point 9 °F
Humidity 84%
Rainfall 0.04 in
Snow Depth Not available.
9:29 AM 5:06 PM
Waxing Crescent, 23% visible
METAR PABT 121953Z 36003KT 10SM FEW042 BKN050 M11/M13 A2956 RMK AO2 SNE12 SLP030 SHSN DSNT W-NW T11061128

10-Day Weather Forecast

Almanac

Astronomy

Feb. 12, 2016 Rise Set
Actual Time
Civil Twilight
Nautical Twilight
Astronomical Twilight
Moon
Length of Visible Light
Length of Day
Tomorrow will be .
, % of the Moon is Illuminated

Today's Extremes

State Highs State Lows

Community

WunderPhotos

Upload Photos

1,892,388 photos uploaded!

WunderBlog® & News

Nearby

Air Quality

  Air Quality AQ Index Pollutant
Not available.

Snow Depth

Station Depth Elevation

Earthquake Activity

City Distance Mag. Time & Date
Minimum magnitude displayed is 2.5.

Coastal Water Temperatures

Place Temperature

Stations

Nearby Weather Stations

Station Location Temp. Windchill Dew Point Humidity Wind Precip. Elev Updated Type
                   

Watches & Warnings

There are currently no watches in effect.